sensor_id;sensor_type;location;lat;lon;timestamp;pressure;altitude;pressure_sealevel;temperature;humidity
60337;BME280;46978;50.288;28.624;2023-09-08T00:00:47;100079.17;;;7.43;96.50
60337;BME280;46978;50.288;28.624;2023-09-08T00:01:49;100082.59;;;7.40;96.62
60337;BME280;46978;50.288;28.624;2023-09-08T00:02:50;100077.42;;;7.40;96.80
60337;BME280;46978;50.288;28.624;2023-09-08T00:03:52;100071.40;;;7.38;96.99
60337;BME280;46978;50.288;28.624;2023-09-08T00:04:54;100077.41;;;7.37;97.20
60337;BME280;46978;50.288;28.624;2023-09-08T00:05:56;100077.40;;;7.35;96.76
60337;BME280;46978;50.288;28.624;2023-09-08T00:06:58;100081.70;;;7.33;96.26
60337;BME280;46978;50.288;28.624;2023-09-08T00:08:00;100081.68;;;7.30;96.01
60337;BME280;46978;50.288;28.624;2023-09-08T00:09:03;100087.68;;;7.29;96.50
60337;BME280;46978;50.288;28.624;2023-09-08T00:10:06;100081.66;;;7.27;96.72
60337;BME280;46978;50.288;28.624;2023-09-08T00:11:07;100083.39;;;7.28;97.45
60337;BME280;46978;50.288;28.624;2023-09-08T00:12:09;100083.39;;;7.28;97.45
60337;BME280;46978;50.288;28.624;2023-09-08T00:13:11;100089.40;;;7.27;97.34
60337;BME280;46978;50.288;28.624;2023-09-08T00:14:12;100084.23;;;7.27;97.33
60337;BME280;46978;50.288;28.624;2023-09-08T00:15:14;100091.13;;;7.27;97.54
60337;BME280;46978;50.288;28.624;2023-09-08T00:16:16;100091.12;;;7.25;97.55
60337;BME280;46978;50.288;28.624;2023-09-08T00:17:17;100082.48;;;7.25;97.47
60337;BME280;46978;50.288;28.624;2023-09-08T00:18:19;100090.23;;;7.25;97.39
60337;BME280;46978;50.288;28.624;2023-09-08T00:19:21;100087.64;;;7.23;97.48
60337;BME280;46978;50.288;28.624;2023-09-08T00:20:23;100089.36;;;7.21;97.28
60337;BME280;46978;50.288;28.624;2023-09-08T00:21:25;100091.07;;;7.19;97.10
60337;BME280;46978;50.288;28.624;2023-09-08T00:22:27;100081.58;;;7.16;97.07
60337;BME280;46978;50.288;28.624;2023-09-08T00:23:29;100091.91;;;7.16;97.09
60337;BME280;46978;50.288;28.624;2023-09-08T00:24:30;100091.05;;;7.16;97.46
60337;BME280;46978;50.288;28.624;2023-09-08T00:25:32;100089.31;;;7.15;97.90
60337;BME280;46978;50.288;28.624;2023-09-08T00:26:34;100094.47;;;7.15;98.32
60337;BME280;46978;50.288;28.624;2023-09-08T00:27:35;100088.44;;;7.11;97.49
60337;BME280;46978;50.288;28.624;2023-09-08T00:28:37;100093.58;;;7.10;97.75
60337;BME280;46978;50.288;28.624;2023-09-08T00:29:39;100089.25;;;7.07;97.58
60337;BME280;46978;50.288;28.624;2023-09-08T00:30:40;100094.41;;;7.06;96.92
60337;BME280;46978;50.288;28.624;2023-09-08T00:31:42;100093.55;;;7.05;96.96
60337;BME280;46978;50.288;28.624;2023-09-08T00:32:44;100085.80;;;7.04;97.21
60337;BME280;46978;50.288;28.624;2023-09-08T00:33:45;100088.36;;;7.02;97.26
60337;BME280;46978;50.288;28.624;2023-09-08T00:34:47;100088.35;;;7.00;97.31
60337;BME280;46978;50.288;28.624;2023-09-08T00:35:49;100084.88;;;7.00;97.51
60337;BME280;46978;50.288;28.624;2023-09-08T00:36:51;100086.61;;;6.99;97.44
60337;BME280;46978;50.288;28.624;2023-09-08T00:37:52;100085.75;;;6.97;96.68
60337;BME280;46978;50.288;28.624;2023-09-08T00:38:54;100086.58;;;6.95;96.64
60337;BME280;46978;50.288;28.624;2023-09-08T00:39:55;100084.82;;;6.92;96.35
60337;BME280;46978;50.288;28.624;2023-09-08T00:40:57;100081.39;;;6.92;96.78
60337;BME280;46978;50.288;28.624;2023-09-08T00:41:59;100086.55;;;6.92;96.91
60337;BME280;46978;50.288;28.624;2023-09-08T00:43:01;100079.65;;;6.91;97.16
60337;BME280;46978;50.288;28.624;2023-09-08T00:44:02;100082.22;;;6.89;97.34
60337;BME280;46978;50.288;28.624;2023-09-08T00:45:05;100081.36;;;6.89;97.45
60337;BME280;46978;50.288;28.624;2023-09-08T00:46:07;100080.51;;;6.88;97.64
60337;BME280;46978;50.288;28.624;2023-09-08T00:47:09;100081.34;;;6.87;97.32
60337;BME280;46978;50.288;28.624;2023-09-08T00:48:12;100080.50;;;6.87;97.44
60337;BME280;46978;50.288;28.624;2023-09-08T00:49:14;100083.06;;;6.85;97.43
60337;BME280;46978;50.288;28.624;2023-09-08T00:50:16;100087.34;;;6.86;97.84
60337;BME280;46978;50.288;28.624;2023-09-08T00:51:18;100085.64;;;6.85;97.56
60337;BME280;46978;50.288;28.624;2023-09-08T00:52:20;100092.50;;;6.85;97.91
60337;BME280;46978;50.288;28.624;2023-09-08T00:53:22;100090.79;;;6.84;98.10
60337;BME280;46978;50.288;28.624;2023-09-08T00:54:24;100088.20;;;6.82;98.37
60337;BME280;46978;50.288;28.624;2023-09-08T00:55:26;100091.63;;;6.82;98.36
60337;BME280;46978;50.288;28.624;2023-09-08T00:56:29;100092.48;;;6.83;98.88
60337;BME280;46978;50.288;28.624;2023-09-08T00:57:31;100089.03;;;6.81;98.87
60337;BME280;46978;50.288;28.624;2023-09-08T00:58:33;100089.03;;;6.81;98.87
60337;BME280;46978;50.288;28.624;2023-09-08T00:59:35;100088.18;;;6.80;99.09
60337;BME280;46978;50.288;28.624;2023-09-08T01:00:38;100092.45;;;6.80;98.85
60337;BME280;46978;50.288;28.624;2023-09-08T01:01:39;100088.17;;;6.79;98.85
60337;BME280;46978;50.288;28.624;2023-09-08T01:02:41;100083.84;;;6.78;98.78
60337;BME280;46978;50.288;28.624;2023-09-08T01:03:43;100083.00;;;6.77;99.05
60337;BME280;46978;50.288;28.624;2023-09-08T01:04:45;100089.84;;;6.77;99.24
60337;BME280;46978;50.288;28.624;2023-09-08T01:05:46;100084.67;;;6.75;99.02
60337;BME280;46978;50.288;28.624;2023-09-08T01:06:50;100080.36;;;6.71;98.30
60337;BME280;46978;50.288;28.624;2023-09-08T01:07:53;100089.79;;;6.71;98.35
60337;BME280;46978;50.288;28.624;2023-09-08T01:08:55;100091.50;;;6.69;98.46
60337;BME280;46978;50.288;28.624;2023-09-08T01:09:57;100085.48;;;6.68;98.93
60337;BME280;46978;50.288;28.624;2023-09-08T01:11:00;100085.48;;;6.67;98.71
60337;BME280;46978;50.288;28.624;2023-09-08T01:12:06;100091.47;;;6.66;98.65
60337;BME280;46978;50.288;28.624;2023-09-08T01:13:08;100088.89;;;6.66;99.14
60337;BME280;46978;50.288;28.624;2023-09-08T01:14:12;100083.72;;;6.64;99.20
60337;BME280;46978;50.288;28.624;2023-09-08T01:15:13;100084.58;;;6.64;99.41
60337;BME280;46978;50.288;28.624;2023-09-08T01:16:15;100084.58;;;6.64;99.49
60337;BME280;46978;50.288;28.624;2023-09-08T01:17:17;100083.72;;;6.64;99.55
60337;BME280;46978;50.288;28.624;2023-09-08T01:18:18;100082.87;;;6.63;99.47
60337;BME280;46978;50.288;28.624;2023-09-08T01:19:20;100089.72;;;6.63;99.38
60337;BME280;46978;50.288;28.624;2023-09-08T01:25:17;100080.24;;;6.59;100.00
60337;BME280;46978;50.288;28.624;2023-09-08T01:26:21;100081.08;;;6.58;100.00
60337;BME280;46978;50.288;28.624;2023-09-08T01:27:25;100082.83;;;6.59;100.00
60337;BME280;46978;50.288;28.624;2023-09-08T01:28:29;100081.95;;;6.57;100.00
60337;BME280;46978;50.288;28.624;2023-09-08T01:29:32;100081.94;;;6.55;100.00
60337;BME280;46978;50.288;28.624;2023-09-08T01:30:36;100076.75;;;6.52;100.00
60337;BME280;46978;50.288;28.624;2023-09-08T01:31:38;100080.98;;;6.47;100.00
60337;BME280;46978;50.288;28.624;2023-09-08T01:32:40;100080.98;;;6.47;100.00
60337;BME280;46978;50.288;28.624;2023-09-08T01:33:42;100081.86;;;6.48;99.42
60337;BME280;46978;50.288;28.624;2023-09-08T01:34:44;100082.70;;;6.46;99.50
60337;BME280;46978;50.288;28.624;2023-09-08T01:35:46;100084.42;;;6.46;99.56
60337;BME280;46978;50.288;28.624;2023-09-08T01:36:49;100086.12;;;6.45;99.89
60337;BME280;46978;50.288;28.624;2023-09-08T01:37:50;100084.41;;;6.44;100.00
60337;BME280;46978;50.288;28.624;2023-09-08T01:38:52;100082.67;;;6.43;100.00
60337;BME280;46978;50.288;28.624;2023-09-08T01:39:54;100089.55;;;6.43;100.00
60337;BME280;46978;50.288;28.624;2023-09-08T01:40:56;100086.09;;;6.42;100.00
60337;BME280;46978;50.288;28.624;2023-09-08T01:41:57;100090.39;;;6.42;100.00
60337;BME280;46978;50.288;28.624;2023-09-08T01:42:59;100081.80;;;6.41;100.00
60337;BME280;46978;50.288;28.624;2023-09-08T01:44:01;100088.63;;;6.39;99.86
60337;BME280;46978;50.288;28.624;2023-09-08T01:45:04;100082.61;;;6.37;99.61
60337;BME280;46978;50.288;28.624;2023-09-08T01:46:05;100088.62;;;6.38;99.88
60337;BME280;46978;50.288;28.624;2023-09-08T01:47:07;100086.89;;;6.35;99.91
60337;BME280;46978;50.288;28.624;2023-09-08T01:48:08;100084.31;;;6.35;100.00
60337;BME280;46978;50.288;28.624;2023-09-08T01:49:10;100083.41;;;6.33;99.86
60337;BME280;46978;50.288;28.624;2023-09-08T01:50:12;100079.98;;;6.33;99.75
60337;BME280;46978;50.288;28.624;2023-09-08T01:51:14;100085.95;;;6.30;99.63
60337;BME280;46978;50.288;28.624;2023-09-08T01:52:15;100079.95;;;6.30;99.44
60337;BME280;46978;50.288;28.624;2023-09-08T01:53:17;100082.49;;;6.26;99.61
60337;BME280;46978;50.288;28.624;2023-09-08T01:54:18;100085.05;;;6.25;99.83
60337;BME280;46978;50.288;28.624;2023-09-08T01:55:20;100082.45;;;6.23;100.00
60337;BME280;46978;50.288;28.624;2023-09-08T01:56:22;100087.61;;;6.23;100.00
60337;BME280;46978;50.288;28.624;2023-09-08T01:57:23;100079.86;;;6.22;100.00
60337;BME280;46978;50.288;28.624;2023-09-08T01:58:25;100081.59;;;6.21;100.00
60337;BME280;46978;50.288;28.624;2023-09-08T01:59:27;100079.01;;;6.21;100.00
60337;BME280;46978;50.288;28.624;2023-09-08T02:00:28;100074.70;;;6.22;100.00
60337;BME280;46978;50.288;28.624;2023-09-08T02:01:30;100078.14;;;6.22;100.00
60337;BME280;46978;50.288;28.624;2023-09-08T02:02:31;100076.41;;;6.20;100.00
60337;BME280;46978;50.288;28.624;2023-09-08T02:03:33;100072.09;;;6.19;100.00
60337;BME280;46978;50.288;28.624;2023-09-08T02:04:34;100079.81;;;6.17;100.00
60337;BME280;46978;50.288;28.624;2023-09-08T02:05:36;100073.78;;;6.15;100.00
60337;BME280;46978;50.288;28.624;2023-09-08T02:06:38;100076.34;;;6.14;100.00
60337;BME280;46978;50.288;28.624;2023-09-08T02:07:39;100078.03;;;6.13;100.00
60337;BME280;46978;50.288;28.624;2023-09-08T02:08:41;100072.88;;;6.13;100.00
60337;BME280;46978;50.288;28.624;2023-09-08T02:09:42;100077.19;;;6.13;100.00
60337;BME280;46978;50.288;28.624;2023-09-08T02:10:44;100078.91;;;6.12;100.00
60337;BME280;46978;50.288;28.624;2023-09-08T02:11:45;100073.73;;;6.10;100.00
60337;BME280;46978;50.288;28.624;2023-09-08T02:12:47;100078.89;;;6.10;100.00
60337;BME280;46978;50.288;28.624;2023-09-08T02:13:49;100077.98;;;6.08;100.00
60337;BME280;46978;50.288;28.624;2023-09-08T02:14:50;100076.30;;;6.09;100.00
60337;BME280;46978;50.288;28.624;2023-09-08T02:15:52;100077.13;;;6.08;100.00
60337;BME280;46978;50.288;28.624;2023-09-08T02:16:54;100077.98;;;6.08;100.00
60337;BME280;46978;50.288;28.624;2023-09-08T02:17:57;100071.13;;;6.07;100.00
60337;BME280;46978;50.288;28.624;2023-09-08T02:18:58;100071.13;;;6.07;100.00
60337;BME280;46978;50.288;28.624;2023-09-08T02:20:00;100071.95;;;6.06;100.00
60337;BME280;46978;50.288;28.624;2023-09-08T02:21:02;100069.38;;;6.06;100.00
60337;BME280;46978;50.288;28.624;2023-09-08T02:22:04;100074.55;;;6.08;100.00
60337;BME280;46978;50.288;28.624;2023-09-08T02:23:06;100064.23;;;6.06;100.00
60337;BME280;46978;50.288;28.624;2023-09-08T02:24:08;100066.78;;;6.05;100.00
60337;BME280;46978;50.288;28.624;2023-09-08T02:25:10;100071.11;;;6.06;100.00
60337;BME280;46978;50.288;28.624;2023-09-08T02:26:12;100074.52;;;6.05;100.00
60337;BME280;46978;50.288;28.624;2023-09-08T02:27:14;100071.09;;;6.04;100.00
60337;BME280;46978;50.288;28.624;2023-09-08T02:28:15;100063.34;;;6.03;100.00
60337;BME280;46978;50.288;28.624;2023-09-08T02:29:17;100062.44;;;6.01;100.00
60337;BME280;46978;50.288;28.624;2023-09-08T02:30:19;100060.71;;;5.98;100.00
60337;BME280;46978;50.288;28.624;2023-09-08T02:31:21;100060.71;;;5.98;100.00
60337;BME280;46978;50.288;28.624;2023-09-08T02:32:22;100061.58;;;6.00;100.00
60337;BME280;46978;50.288;28.624;2023-09-08T02:33:24;100061.58;;;6.00;100.00
60337;BME280;46978;50.288;28.624;2023-09-08T02:34:26;100067.59;;;6.01;100.00
60337;BME280;46978;50.288;28.624;2023-09-08T02:35:27;100060.73;;;6.00;100.00
60337;BME280;46978;50.288;28.624;2023-09-08T02:36:29;100062.41;;;5.99;100.00
60337;BME280;46978;50.288;28.624;2023-09-08T02:37:30;100061.56;;;5.99;100.00
60337;BME280;46978;50.288;28.624;2023-09-08T02:38:32;100060.71;;;5.98;100.00
60337;BME280;46978;50.288;28.624;2023-09-08T02:39:34;100064.14;;;5.99;100.00
60337;BME280;46978;50.288;28.624;2023-09-08T02:40:36;100058.97;;;5.97;100.00
60337;BME280;46978;50.288;28.624;2023-09-08T02:41:37;100062.34;;;5.96;100.00
60337;BME280;46978;50.288;28.624;2023-09-08T02:42:39;100060.64;;;5.95;100.00
60337;BME280;46978;50.288;28.624;2023-09-08T02:43:40;100060.63;;;5.93;100.00
60337;BME280;46978;50.288;28.624;2023-09-08T02:44:42;100063.20;;;5.93;100.00
60337;BME280;46978;50.288;28.624;2023-09-08T02:45:43;100059.73;;;5.93;100.00
60337;BME280;46978;50.288;28.624;2023-09-08T02:46:47;100057.14;;;5.91;100.00
60337;BME280;46978;50.288;28.624;2023-09-08T02:47:49;100064.00;;;5.89;100.00
60337;BME280;46978;50.288;28.624;2023-09-08T02:48:51;100064.83;;;5.88;100.00
60337;BME280;46978;50.288;28.624;2023-09-08T02:49:53;100069.11;;;5.86;100.00
60337;BME280;46978;50.288;28.624;2023-09-08T02:50:55;100064.80;;;5.85;100.00
60337;BME280;46978;50.288;28.624;2023-09-08T02:51:56;100066.52;;;5.85;100.00
60337;BME280;46978;50.288;28.624;2023-09-08T02:52:58;100068.23;;;5.84;100.00
60337;BME280;46978;50.288;28.624;2023-09-08T02:54:00;100069.07;;;5.83;100.00
60337;BME280;46978;50.288;28.624;2023-09-08T02:55:02;100068.22;;;5.83;100.00
60337;BME280;46978;50.288;28.624;2023-09-08T02:56:03;100063.92;;;5.83;100.00
60337;BME280;46978;50.288;28.624;2023-09-08T02:57:05;100063.91;;;5.82;100.00
60337;BME280;46978;50.288;28.624;2023-09-08T02:58:07;100062.16;;;5.81;100.00
60337;BME280;46978;50.288;28.624;2023-09-08T02:59:08;100045.00;;;5.80;100.00
60337;BME280;46978;50.288;28.624;2023-09-08T03:00:12;100062.14;;;5.79;100.00
60337;BME280;46978;50.288;28.624;2023-09-08T03:01:17;100059.55;;;5.78;100.00
60337;BME280;46978;50.288;28.624;2023-09-08T03:02:19;100054.40;;;5.78;100.00
60337;BME280;46978;50.288;28.624;2023-09-08T03:03:20;100056.95;;;5.76;100.00
60337;BME280;46978;50.288;28.624;2023-09-08T03:04:23;100054.37;;;5.76;100.00
60337;BME280;46978;50.288;28.624;2023-09-08T03:05:24;100050.09;;;5.75;100.00
60337;BME280;46978;50.288;28.624;2023-09-08T03:06:26;100056.09;;;5.75;100.00
60337;BME280;46978;50.288;28.624;2023-09-08T03:07:28;100054.36;;;5.74;100.00
60337;BME280;46978;50.288;28.624;2023-09-08T03:08:30;100051.77;;;5.73;100.00
60337;BME280;46978;50.288;28.624;2023-09-08T03:09:33;100048.33;;;5.72;100.00
60337;BME280;46978;50.288;28.624;2023-09-08T03:10:35;100050.91;;;5.72;100.00
60337;BME280;46978;50.288;28.624;2023-09-08T03:11:37;100050.87;;;5.69;100.00
60337;BME280;46978;50.288;28.624;2023-09-08T03:12:38;100052.59;;;5.69;100.00
60337;BME280;46978;50.288;28.624;2023-09-08T03:13:40;100055.15;;;5.67;100.00
60337;BME280;46978;50.288;28.624;2023-09-08T03:14:42;100053.42;;;5.68;100.00
60337;BME280;46978;50.288;28.624;2023-09-08T03:15:43;100050.02;;;5.69;100.00
60337;BME280;46978;50.288;28.624;2023-09-08T03:16:45;100052.57;;;5.67;100.00
60337;BME280;46978;50.288;28.624;2023-09-08T03:17:46;100056.84;;;5.67;100.00
60337;BME280;46978;50.288;28.624;2023-09-08T03:18:48;100061.97;;;5.65;100.00
60337;BME280;46978;50.288;28.624;2023-09-08T03:19:49;100060.25;;;5.64;100.00
60337;BME280;46978;50.288;28.624;2023-09-08T03:20:51;100054.20;;;5.62;100.00
60337;BME280;46978;50.288;28.624;2023-09-08T03:21:53;100061.05;;;5.60;100.00
60337;BME280;46978;50.288;28.624;2023-09-08T03:22:55;100058.45;;;5.59;100.00
60337;BME280;46978;50.288;28.624;2023-09-08T03:23:56;100058.45;;;5.59;100.00
60337;BME280;46978;50.288;28.624;2023-09-08T03:24:58;100058.45;;;5.59;100.00
60337;BME280;46978;50.288;28.624;2023-09-08T03:26:00;100056.73;;;5.59;100.00
60337;BME280;46978;50.288;28.624;2023-09-08T03:27:01;100055.05;;;5.60;100.00
60337;BME280;46978;50.288;28.624;2023-09-08T03:28:03;100054.18;;;5.61;100.00
60337;BME280;46978;50.288;28.624;2023-09-08T03:29:05;100058.45;;;5.59;100.00
60337;BME280;46978;50.288;28.624;2023-09-08T03:30:08;100061.88;;;5.59;100.00
60337;BME280;46978;50.288;28.624;2023-09-08T03:31:10;100064.45;;;5.59;100.00
60337;BME280;46978;50.288;28.624;2023-09-08T03:32:11;100061.03;;;5.59;100.00
60337;BME280;46978;50.288;28.624;2023-09-08T03:33:13;100057.60;;;5.58;100.00
60337;BME280;46978;50.288;28.624;2023-09-08T03:34:14;100060.16;;;5.56;100.00
60337;BME280;46978;50.288;28.624;2023-09-08T03:35:16;100059.27;;;5.56;100.00
60337;BME280;46978;50.288;28.624;2023-09-08T03:36:18;100053.27;;;5.55;100.00
60337;BME280;46978;50.288;28.624;2023-09-08T03:37:20;100058.45;;;5.59;100.00
60337;BME280;46978;50.288;28.624;2023-09-08T03:38:22;100055.88;;;5.59;100.00
60337;BME280;46978;50.288;28.624;2023-09-08T03:39:24;100051.59;;;5.59;100.00
60337;BME280;46978;50.288;28.624;2023-09-08T03:40:26;100051.59;;;5.59;100.00
60337;BME280;46978;50.288;28.624;2023-09-08T03:41:27;100054.18;;;5.61;100.00
60337;BME280;46978;50.288;28.624;2023-09-08T03:42:29;100048.20;;;5.62;100.00
60337;BME280;46978;50.288;28.624;2023-09-08T03:43:31;100058.54;;;5.65;100.00
60337;BME280;46978;50.288;28.624;2023-09-08T03:44:32;100053.39;;;5.65;100.00
60337;BME280;46978;50.288;28.624;2023-09-08T03:45:34;100056.84;;;5.67;100.00
60337;BME280;46978;50.288;28.624;2023-09-08T03:46:36;100048.28;;;5.68;100.00
60337;BME280;46978;50.288;28.624;2023-09-08T03:47:38;100051.72;;;5.70;100.00
60337;BME280;46978;50.288;28.624;2023-09-08T03:48:39;100053.48;;;5.72;100.00
60337;BME280;46978;50.288;28.624;2023-09-08T03:49:41;100053.55;;;5.77;100.00
60337;BME280;46978;50.288;28.624;2023-09-08T03:50:43;100049.32;;;5.84;100.00
60337;BME280;46978;50.288;28.624;2023-09-08T03:51:45;100049.41;;;5.91;100.00
60337;BME280;46978;50.288;28.624;2023-09-08T03:52:46;100046.12;;;6.00;100.00
60337;BME280;46978;50.288;28.624;2023-09-08T03:53:48;100050.56;;;6.12;100.00
60337;BME280;46978;50.288;28.624;2023-09-08T03:54:50;100047.23;;;6.24;100.00
60337;BME280;46978;50.288;28.624;2023-09-08T03:55:51;100045.65;;;6.35;100.00
60337;BME280;46978;50.288;28.624;2023-09-08T03:56:53;100041.45;;;6.46;100.00
60337;BME280;46978;50.288;28.624;2023-09-08T03:57:55;100047.58;;;6.59;100.00
60337;BME280;46978;50.288;28.624;2023-09-08T03:58:56;100046.81;;;6.70;100.00
60337;BME280;46978;50.288;28.624;2023-09-08T03:59:58;100043.45;;;6.81;100.00
60337;BME280;46978;50.288;28.624;2023-09-08T04:01:00;100043.55;;;6.94;100.00
60337;BME280;46978;50.288;28.624;2023-09-08T04:02:02;100050.53;;;7.06;100.00
60337;BME280;46978;50.288;28.624;2023-09-08T04:03:04;100048.03;;;7.16;99.53
60337;BME280;46978;50.288;28.624;2023-09-08T04:04:06;100042.92;;;7.26;98.76
60337;BME280;46978;50.288;28.624;2023-09-08T04:05:08;100047.30;;;7.36;98.58
60337;BME280;46978;50.288;28.624;2023-09-08T04:06:11;100048.20;;;7.46;98.31
60337;BME280;46978;50.288;28.624;2023-09-08T04:07:13;100050.84;;;7.55;97.94
60337;BME280;46978;50.288;28.624;2023-09-08T04:08:14;100050.02;;;7.59;97.50
60337;BME280;46978;50.288;28.624;2023-09-08T04:09:16;100050.03;;;7.62;97.05
60337;BME280;46978;50.288;28.624;2023-09-08T04:10:17;100050.03;;;7.64;96.60
60337;BME280;46978;50.288;28.624;2023-09-08T04:11:19;100050.06;;;7.70;96.16
60337;BME280;46978;50.288;28.624;2023-09-08T04:12:21;100045.78;;;7.77;95.69
60337;BME280;46978;50.288;28.624;2023-09-08T04:13:22;100044.97;;;7.85;95.17
60337;BME280;46978;50.288;28.624;2023-09-08T04:14:24;100045.84;;;7.92;94.47
60337;BME280;46978;50.288;28.624;2023-09-08T04:15:25;100049.30;;;8.00;93.83
60337;BME280;46978;50.288;28.624;2023-09-08T04:16:28;100049.33;;;8.08;93.25
60337;BME280;46978;50.288;28.624;2023-09-08T04:17:30;100051.08;;;8.14;92.69
60337;BME280;46978;50.288;28.624;2023-09-08T04:18:31;100045.92;;;8.21;92.24
60337;BME280;46978;50.288;28.624;2023-09-08T04:19:33;100049.38;;;8.28;91.91
60337;BME280;46978;50.288;28.624;2023-09-08T04:20:35;100044.23;;;8.36;91.52
60337;BME280;46978;50.288;28.624;2023-09-08T04:21:37;100043.38;;;8.41;91.46
60337;BME280;46978;50.288;28.624;2023-09-08T04:22:38;100052.03;;;8.47;91.37
60337;BME280;46978;50.288;28.624;2023-09-08T04:23:40;100043.42;;;8.48;90.93
60337;BME280;46978;50.288;28.624;2023-09-08T04:24:41;100046.87;;;8.50;91.01
60337;BME280;46978;50.288;28.624;2023-09-08T04:25:43;100044.28;;;8.53;91.49
60337;BME280;46978;50.288;28.624;2023-09-08T04:26:44;100042.55;;;8.55;91.22
60337;BME280;46978;50.288;28.624;2023-09-08T04:27:46;100044.29;;;8.57;90.96
60337;BME280;46978;50.288;28.624;2023-09-08T04:28:47;100052.91;;;8.59;90.76
60337;BME280;46978;50.288;28.624;2023-09-08T04:29:49;100050.31;;;8.61;90.62
60337;BME280;46978;50.288;28.624;2023-09-08T04:30:51;100049.47;;;8.60;90.42
60337;BME280;46978;50.288;28.624;2023-09-08T04:31:53;100046.87;;;8.60;90.28
60337;BME280;46978;50.288;28.624;2023-09-08T04:32:54;100051.20;;;8.60;90.11
60337;BME280;46978;50.288;28.624;2023-09-08T04:33:56;100047.73;;;8.61;90.08
60337;BME280;46978;50.288;28.624;2023-09-08T04:34:57;100052.05;;;8.62;90.17
60337;BME280;46978;50.288;28.624;2023-09-08T04:35:59;100051.20;;;8.65;90.16
60337;BME280;46978;50.288;28.624;2023-09-08T04:37:01;100043.44;;;8.66;90.03
60337;BME280;46978;50.288;28.624;2023-09-08T04:38:03;100046.03;;;8.69;90.07
60337;BME280;46978;50.288;28.624;2023-09-08T04:39:05;100043.45;;;8.71;90.09
60337;BME280;46978;50.288;28.624;2023-09-08T04:40:07;100042.56;;;8.75;90.25
60337;BME280;46978;50.288;28.624;2023-09-08T04:41:09;100037.39;;;8.79;90.36
60337;BME280;46978;50.288;28.624;2023-09-08T04:42:11;100039.12;;;8.85;90.41
60337;BME280;46978;50.288;28.624;2023-09-08T04:43:12;100040.86;;;8.91;90.26
60337;BME280;46978;50.288;28.624;2023-09-08T04:44:14;100040.86;;;8.95;90.17
60337;BME280;46978;50.288;28.624;2023-09-08T04:45:16;100041.70;;;9.01;90.19
60337;BME280;46978;50.288;28.624;2023-09-08T04:46:18;100043.44;;;9.06;90.07
60337;BME280;46978;50.288;28.624;2023-09-08T04:47:19;100041.70;;;9.10;89.89
60337;BME280;46978;50.288;28.624;2023-09-08T04:48:21;100041.69;;;9.18;89.97
60337;BME280;46978;50.288;28.624;2023-09-08T04:49:22;100043.38;;;9.23;89.69
60337;BME280;46978;50.288;28.624;2023-09-08T04:50:24;100041.67;;;9.27;88.45
60337;BME280;46978;50.288;28.624;2023-09-08T04:51:26;100040.77;;;9.32;88.95
60337;BME280;46978;50.288;28.624;2023-09-08T04:52:28;100039.91;;;9.38;89.10
60337;BME280;46978;50.288;28.624;2023-09-08T04:53:29;100039.05;;;9.44;89.10
60337;BME280;46978;50.288;28.624;2023-09-08T04:54:31;100045.05;;;9.52;88.98
60337;BME280;46978;50.288;28.624;2023-09-08T04:55:33;100046.77;;;9.59;88.37
60337;BME280;46978;50.288;28.624;2023-09-08T04:56:34;100041.58;;;9.64;87.82
60337;BME280;46978;50.288;28.624;2023-09-08T04:57:36;100037.22;;;9.71;87.18
60337;BME280;46978;50.288;28.624;2023-09-08T04:58:38;100037.20;;;9.75;86.78
60337;BME280;46978;50.288;28.624;2023-09-08T04:59:40;100033.74;;;9.79;86.81
60337;BME280;46978;50.288;28.624;2023-09-08T05:00:41;100035.41;;;9.88;86.87
60337;BME280;46978;50.288;28.624;2023-09-08T05:01:43;100037.11;;;9.97;87.12
60337;BME280;46978;50.288;28.624;2023-09-08T05:02:45;100034.48;;;10.03;85.42
60337;BME280;46978;50.288;28.624;2023-09-08T05:03:47;100034.45;;;10.11;85.23
60337;BME280;46978;50.288;28.624;2023-09-08T05:04:49;100031.82;;;10.17;84.04
60337;BME280;46978;50.288;28.624;2023-09-08T05:05:50;100030.03;;;10.25;84.52
60337;BME280;46978;50.288;28.624;2023-09-08T05:06:52;100028.29;;;10.36;84.81
60337;BME280;46978;50.288;28.624;2023-09-08T05:07:54;100027.32;;;10.48;84.34
60337;BME280;46978;50.288;28.624;2023-09-08T05:08:55;100022.06;;;10.57;83.16
60337;BME280;46978;50.288;28.624;2023-09-08T05:09:57;100030.62;;;10.69;83.52
60337;BME280;46978;50.288;28.624;2023-09-08T05:10:59;100033.12;;;10.81;82.27
60337;BME280;46978;50.288;28.624;2023-09-08T05:12:00;100035.63;;;10.90;81.86
60337;BME280;46978;50.288;28.624;2023-09-08T05:13:02;100028.65;;;11.00;81.58
60337;BME280;46978;50.288;28.624;2023-09-08T05:14:03;100034.62;;;11.08;79.69
60337;BME280;46978;50.288;28.624;2023-09-08T05:15:06;100037.11;;;11.19;80.14
60337;BME280;46978;50.288;28.624;2023-09-08T05:16:08;100037.02;;;11.28;79.84
60337;BME280;46978;50.288;28.624;2023-09-08T05:17:09;100037.76;;;11.40;79.44
60337;BME280;46978;50.288;28.624;2023-09-08T05:18:11;100031.59;;;11.50;78.90
60337;BME280;46978;50.288;28.624;2023-09-08T05:19:13;100036.69;;;11.59;77.78
60337;BME280;46978;50.288;28.624;2023-09-08T05:20:15;100037.45;;;11.68;77.50
60337;BME280;46978;50.288;28.624;2023-09-08T05:21:16;100031.31;;;11.75;76.88
60337;BME280;46978;50.288;28.624;2023-09-08T05:22:18;100039.08;;;11.78;75.71
60337;BME280;46978;50.288;28.624;2023-09-08T05:23:20;100034.69;;;11.81;75.66
60337;BME280;46978;50.288;28.624;2023-09-08T05:24:21;100034.63;;;11.86;75.42
60337;BME280;46978;50.288;28.624;2023-09-08T05:25:23;100038.04;;;11.90;75.79
60337;BME280;46978;50.288;28.624;2023-09-08T05:26:25;100031.02;;;12.01;75.45